sensor_id;sensor_type;location;lat;lon;timestamp;temperature;humidity
46634;DHT22;32362;49.986;8.026;2023-05-14T00:09:40;23.00;66.20
46634;DHT22;32362;49.986;8.026;2023-05-14T00:36:20;23.00;66.30
46634;DHT22;32362;49.986;8.026;2023-05-14T01:03:02;23.00;66.50
46634;DHT22;32362;49.986;8.026;2023-05-14T01:29:49;22.90;66.50
46634;DHT22;32362;49.986;8.026;2023-05-14T01:56:31;22.90;66.50
46634;DHT22;32362;49.986;8.026;2023-05-14T02:23:12;22.90;66.50
46634;DHT22;32362;49.986;8.026;2023-05-14T02:49:53;22.80;66.30
46634;DHT22;32362;49.986;8.026;2023-05-14T03:16:34;22.80;66.00
46634;DHT22;32362;49.986;8.026;2023-05-14T03:43:14;22.70;66.00
46634;DHT22;32362;49.986;8.026;2023-05-14T04:09:56;22.70;67.30
46634;DHT22;32362;49.986;8.026;2023-05-14T04:36:37;22.40;68.50
46634;DHT22;32362;49.986;8.026;2023-05-14T05:03:17;22.60;68.80
46634;DHT22;32362;49.986;8.026;2023-05-14T05:30:00;22.40;67.50
46634;DHT22;32362;49.986;8.026;2023-05-14T06:10:23;22.50;67.70
46634;DHT22;32362;49.986;8.026;2023-05-14T06:37:04;14.60;88.90
46634;DHT22;32362;49.986;8.026;2023-05-14T07:03:46;14.90;86.20
46634;DHT22;32362;49.986;8.026;2023-05-14T07:30:42;14.80;87.10
46634;DHT22;32362;49.986;8.026;2023-05-14T07:57:37;18.10;74.00
46634;DHT22;32362;49.986;8.026;2023-05-14T08:24:18;19.20;68.10
46634;DHT22;32362;49.986;8.026;2023-05-14T08:51:03;18.60;69.40
46634;DHT22;32362;49.986;8.026;2023-05-14T09:17:52;19.80;65.70
46634;DHT22;32362;49.986;8.026;2023-05-14T09:44:33;22.20;59.80
46634;DHT22;32362;49.986;8.026;2023-05-14T10:11:18;24.80;52.50
46634;DHT22;32362;49.986;8.026;2023-05-14T10:38:07;28.30;43.20
46634;DHT22;32362;49.986;8.026;2023-05-14T11:05:01;26.30;50.20
46634;DHT22;32362;49.986;8.026;2023-05-14T11:31:45;26.50;48.40
46634;DHT22;32362;49.986;8.026;2023-05-14T11:58:26;34.00;40.10
46634;DHT22;32362;49.986;8.026;2023-05-14T12:25:11;35.80;35.80
46634;DHT22;32362;49.986;8.026;2023-05-14T12:51:55;37.80;31.90
46634;DHT22;32362;49.986;8.026;2023-05-14T13:18:36;27.40;46.20
46634;DHT22;32362;49.986;8.026;2023-05-14T13:45:16;27.20;47.60
46634;DHT22;32362;49.986;8.026;2023-05-14T14:12:04;30.80;42.20
46634;DHT22;32362;49.986;8.026;2023-05-14T14:38:45;27.80;47.30
46634;DHT22;32362;49.986;8.026;2023-05-14T15:05:26;29.30;45.30
46634;DHT22;32362;49.986;8.026;2023-05-14T15:32:07;29.30;42.00
46634;DHT22;32362;49.986;8.026;2023-05-14T15:58:51;27.40;46.00
46634;DHT22;32362;49.986;8.026;2023-05-14T16:25:31;23.50;57.20
46634;DHT22;32362;49.986;8.026;2023-05-14T16:52:12;21.00;74.30
46634;DHT22;32362;49.986;8.026;2023-05-14T17:18:53;23.40;63.60
46634;DHT22;32362;49.986;8.026;2023-05-14T17:45:34;21.90;63.90
46634;DHT22;32362;49.986;8.026;2023-05-14T18:12:14;20.50;66.40
46634;DHT22;32362;49.986;8.026;2023-05-14T18:38:55;19.40;72.70
46634;DHT22;32362;49.986;8.026;2023-05-14T19:05:36;18.90;64.40
46634;DHT22;32362;49.986;8.026;2023-05-14T19:32:20;18.40;67.50
46634;DHT22;32362;49.986;8.026;2023-05-14T19:59:04;18.00;67.50
46634;DHT22;32362;49.986;8.026;2023-05-14T20:25:45;17.70;70.20
46634;DHT22;32362;49.986;8.026;2023-05-14T20:52:27;17.30;71.80
46634;DHT22;32362;49.986;8.026;2023-05-14T21:19:07;17.20;72.90
46634;DHT22;32362;49.986;8.026;2023-05-14T21:45:48;16.80;74.10
46634;DHT22;32362;49.986;8.026;2023-05-14T22:12:28;16.80;77.20
46634;DHT22;32362;49.986;8.026;2023-05-14T22:39:09;15.90;81.60
46634;DHT22;32362;49.986;8.026;2023-05-14T23:06:05;15.80;83.10
46634;DHT22;32362;49.986;8.026;2023-05-14T23:32:46;15.50;83.90
46634;DHT22;32362;49.986;8.026;2023-05-14T23:59:26;15.10;86.70
